Time;durP1;ratioP1;P1;durP2;ratioP2;P2;SDS_P1;SDS_P2;PMS_P1;PMS_P2;Temp;Humidity;BMP_temperature;BMP_pressure;BME280_temperature;BME280_humidity;BME280_pressure;Samples;Min_cycle;Max_cycle;Signal;HPM_P1;HPM_P2
2021/08/15 00:01:37;;;;;;;6.05;5.47;;;28.50;96.70;;;;;;5002761;28;20129;-76
2021/08/15 00:04:06;;;;;;;6.25;5.07;;;28.30;96.70;;;;;;4995776;28;20038;-76
2021/08/15 00:06:36;;;;;;;8.05;5.55;;;28.30;96.70;;;;;;4996459;28;20048;-76
2021/08/15 00:09:06;;;;;;;8.15;6.50;;;28.30;96.70;;;;;;5003952;28;20037;-76
2021/08/15 00:11:36;;;;;;;6.10;5.10;;;28.20;96.70;;;;;;4998414;28;20043;-76
2021/08/15 00:14:10;;;;;;;8.93;5.90;;;28.00;96.70;;;;;;4993410;28;20389;-76
2021/08/15 00:16:49;;;;;;;8.07;6.30;;;28.10;96.70;;;;;;4984695;28;20057;-76
2021/08/15 00:19:18;;;;;;;6.97;5.78;;;28.20;96.70;;;;;;5015177;28;20499;-76
2021/08/15 00:21:48;;;;;;;6.70;6.03;;;28.10;96.70;;;;;;5019729;28;20045;-76
2021/08/15 00:24:17;;;;;;;9.15;5.85;;;28.20;96.70;;;;;;5023347;28;20435;-75
2021/08/15 00:26:46;;;;;;;8.30;6.25;;;28.30;96.70;;;;;;5011372;28;20049;-76
2021/08/15 00:29:14;;;;;;;7.28;6.03;;;28.30;96.70;;;;;;5021708;28;20120;-76
2021/08/15 00:31:42;;;;;;;6.07;5.57;;;28.30;96.70;;;;;;5018152;28;20042;-76
2021/08/15 00:34:15;;;;;;;8.68;6.30;;;28.00;96.70;;;;;;5019792;28;20047;-76
2021/08/15 00:36:43;;;;;;;7.88;6.50;;;28.00;96.70;;;;;;5022336;28;20049;-76
2021/08/15 00:39:13;;;;;;;7.25;6.20;;;28.20;96.70;;;;;;4998080;28;20050;-76
2021/08/15 00:41:41;;;;;;;8.50;6.35;;;28.40;96.70;;;;;;5021127;28;20135;-76
2021/08/15 00:44:11;;;;;;;6.75;6.15;;;28.50;96.70;;;;;;5012578;28;20060;-76
2021/08/15 00:46:41;;;;;;;6.57;5.55;;;28.60;96.70;;;;;;5018982;28;20057;-76
2021/08/15 00:49:10;;;;;;;6.70;5.70;;;28.50;96.70;;;;;;5023241;28;20100;-76
2021/08/15 00:51:38;;;;;;;9.00;6.57;;;28.50;96.70;;;;;;5017950;28;20113;-76
2021/08/15 00:54:07;;;;;;;6.68;6.18;;;28.40;96.70;;;;;;5020058;28;20041;-76
2021/08/15 00:56:37;;;;;;;9.25;6.68;;;28.20;96.70;;;;;;5017705;28;20041;-76
2021/08/15 00:59:06;;;;;;;8.02;6.57;;;27.90;96.70;;;;;;5019118;28;20380;-76
2021/08/15 01:01:43;;;;;;;7.75;6.97;;;27.80;96.70;;;;;;5017219;28;20108;-76
2021/08/15 01:04:15;;;;;;;7.80;6.70;;;27.90;96.70;;;;;;5015961;28;20897;-76
2021/08/15 01:06:45;;;;;;;8.23;6.50;;;28.00;96.70;;;;;;5017814;28;20092;-76
2021/08/15 01:09:13;;;;;;;6.30;5.80;;;28.00;96.70;;;;;;5014342;28;20155;-76
2021/08/15 01:11:43;;;;;;;6.88;6.20;;;27.90;96.70;;;;;;5007391;28;20049;-76
2021/08/15 01:14:11;;;;;;;8.93;6.25;;;27.80;96.70;;;;;;5022508;28;21206;-76
2021/08/15 01:16:42;;;;;;;8.00;6.38;;;27.70;96.70;;;;;;5020501;28;20799;-76
2021/08/15 01:19:12;;;;;;;11.18;6.55;;;27.80;96.70;;;;;;5036722;28;20219;-76
2021/08/15 01:22:08;;;;;;;6.95;5.97;;;27.90;96.70;;;;;;5026833;28;20485;-76
2021/08/15 01:24:36;;;;;;;10.13;6.47;;;27.80;96.70;;;;;;5024666;28;20059;-76
2021/08/15 01:27:29;;;;;;;7.78;6.10;;;27.60;96.70;;;;;;5028716;28;20048;-76
2021/08/15 01:29:59;;;;;;;8.68;6.63;;;27.60;96.70;;;;;;5022907;28;20483;-76
2021/08/15 01:32:28;;;;;;;8.88;6.00;;;27.50;96.70;;;;;;5008230;28;20149;-76
2021/08/15 01:35:00;;;;;;;8.60;5.65;;;27.50;96.70;;;;;;5041472;28;20049;-76
2021/08/15 01:37:29;;;;;;;7.72;6.03;;;27.60;96.70;;;;;;5024411;28;20598;-76
2021/08/15 01:40:04;;;;;;;8.27;5.93;;;27.50;96.70;;;;;;5042300;28;20638;-76
2021/08/15 01:42:34;;;;;;;8.13;6.05;;;27.50;96.70;;;;;;5042684;28;20045;-76
2021/08/15 01:45:09;;;;;;;7.45;5.70;;;27.50;96.70;;;;;;5041834;28;20084;-76
2021/08/15 01:47:37;;;;;;;6.47;5.88;;;27.40;96.70;;;;;;5009941;28;20148;-77
2021/08/15 01:50:07;;;;;;;6.90;6.30;;;27.30;96.70;;;;;;5041048;28;20124;-76
2021/08/15 01:52:35;;;;;;;7.68;6.05;;;27.30;96.70;;;;;;5044388;28;20128;-75
2021/08/15 01:55:05;;;;;;;6.95;5.75;;;27.30;96.70;;;;;;5009195;28;20037;-76
2021/08/15 01:57:33;;;;;;;6.43;5.80;;;27.30;96.70;;;;;;5025765;28;20045;-76
2021/08/15 02:00:01;;;;;;;8.55;6.55;;;27.30;96.70;;;;;;5044926;28;20043;-76
2021/08/15 02:02:49;;;;;;;6.70;5.90;;;27.10;96.70;;;;;;5042358;28;20045;-76
2021/08/15 02:05:19;;;;;;;6.60;6.00;;;26.90;96.70;;;;;;5025161;28;20398;-76
2021/08/15 02:07:47;;;;;;;6.80;6.20;;;26.90;96.70;;;;;;5042867;28;20498;-76
2021/08/15 02:10:17;;;;;;;8.25;6.75;;;27.00;96.70;;;;;;5025563;28;20417;-77
2021/08/15 02:12:47;;;;;;;6.45;5.85;;;27.00;96.70;;;;;;5043575;28;20044;-76
2021/08/15 02:15:16;;;;;;;7.07;6.47;;;26.80;96.70;;;;;;5026844;28;20066;-76
2021/08/15 02:17:47;;;;;;;7.72;6.30;;;26.90;96.70;;;;;;5023754;28;20929;-76
2021/08/15 02:20:19;;;;;;;6.28;5.47;;;26.80;96.70;;;;;;5025140;28;20156;-76
2021/08/15 02:22:48;;;;;;;7.18;5.95;;;26.70;96.70;;;;;;5021419;28;20063;-76
2021/08/15 02:25:19;;;;;;;7.75;7.03;;;26.60;96.70;;;;;;5038042;28;20494;-76
2021/08/15 02:27:50;;;;;;;10.93;6.75;;;26.50;96.70;;;;;;5010134;28;20104;-75
2021/08/15 02:30:22;;;;;;;9.07;6.20;;;26.40;96.70;;;;;;5026399;28;20049;-76
2021/08/15 02:32:52;;;;;;;6.88;5.82;;;26.40;96.70;;;;;;5002169;28;20049;-76
2021/08/15 02:35:20;;;;;;;9.10;6.30;;;26.50;96.70;;;;;;5026780;28;20041;-76
2021/08/15 02:37:52;;;;;;;6.15;5.53;;;26.60;96.70;;;;;;5041143;28;20102;-76
2021/08/15 02:40:22;;;;;;;7.28;6.35;;;26.60;96.70;;;;;;5034161;28;20036;-76
2021/08/15 02:42:52;;;;;;;7.30;6.60;;;26.70;96.70;;;;;;5035292;28;20132;-76
2021/08/15 02:45:22;;;;;;;6.68;5.85;;;26.70;96.70;;;;;;5025747;28;20048;-76
2021/08/15 02:47:52;;;;;;;7.15;6.22;;;26.60;96.70;;;;;;5044885;28;20596;-76
2021/08/15 02:50:22;;;;;;;6.68;6.00;;;26.60;96.70;;;;;;5019834;28;20140;-76
2021/08/15 02:52:50;;;;;;;6.50;5.88;;;26.70;96.70;;;;;;5026624;28;20060;-76
2021/08/15 02:55:19;;;;;;;7.05;5.93;;;26.80;96.70;;;;;;5022356;28;20065;-76
2021/08/15 02:57:47;;;;;;;6.57;5.97;;;26.80;96.70;;;;;;5033413;28;20060;-76
2021/08/15 03:00:17;;;;;;;6.45;5.80;;;26.70;96.70;;;;;;5022084;28;20149;-76
2021/08/15 03:02:46;;;;;;;6.40;5.80;;;26.60;96.70;;;;;;5022211;28;20048;-76
2021/08/15 03:05:19;;;;;;;6.72;6.13;;;26.60;96.70;;;;;;5042030;28;20495;-76
2021/08/15 03:07:48;;;;;;;6.53;5.90;;;26.60;96.70;;;;;;5037371;28;20044;-75
2021/08/15 03:10:17;;;;;;;7.28;6.15;;;26.60;96.70;;;;;;5024144;28;20557;-76
2021/08/15 03:12:45;;;;;;;9.55;7.28;;;26.60;96.70;;;;;;5042956;28;20049;-76
2021/08/15 03:15:13;;;;;;;7.05;6.35;;;26.60;96.70;;;;;;5022629;28;20392;-76
2021/08/15 03:17:42;;;;;;;7.25;6.55;;;26.60;96.70;;;;;;5038948;28;20045;-76
2021/08/15 03:20:13;;;;;;;6.35;5.85;;;26.50;96.70;;;;;;5028003;28;20052;-76
2021/08/15 03:22:49;;;;;;;6.25;5.57;;;26.40;96.70;;;;;;5021172;28;20080;-75
2021/08/15 03:25:17;;;;;;;6.05;5.25;;;26.30;96.70;;;;;;5021115;28;20564;-76
2021/08/15 03:27:45;;;;;;;6.55;5.78;;;26.30;96.70;;;;;;5037634;28;20045;-76
2021/08/15 03:30:17;;;;;;;7.85;5.95;;;26.30;96.70;;;;;;5041887;28;20055;-76
2021/08/15 03:32:46;;;;;;;7.80;5.53;;;26.20;96.70;;;;;;5025882;28;20048;-75
2021/08/15 03:35:14;;;;;;;6.50;5.60;;;26.30;96.70;;;;;;5001171;28;20047;-75
2021/08/15 03:37:42;;;;;;;9.00;5.80;;;26.40;96.70;;;;;;5024500;28;20045;-76
2021/08/15 03:40:12;;;;;;;8.27;6.15;;;26.50;96.70;;;;;;5023519;28;20506;-75
2021/08/15 03:42:41;;;;;;;6.65;5.40;;;26.50;96.70;;;;;;5021183;28;20045;-76
2021/08/15 03:45:11;;;;;;;6.57;5.85;;;26.40;96.70;;;;;;5020953;28;20390;-76
2021/08/15 03:47:41;;;;;;;6.60;5.75;;;26.30;96.70;;;;;;5019895;28;20037;-76
2021/08/15 03:50:10;;;;;;;8.48;5.78;;;26.30;96.70;;;;;;5025639;28;20041;-76
2021/08/15 03:52:39;;;;;;;7.05;5.78;;;26.20;96.70;;;;;;5019207;28;20392;-76
2021/08/15 03:55:11;;;;;;;6.63;5.70;;;26.30;96.70;;;;;;5019389;28;20066;-76
2021/08/15 03:57:41;;;;;;;7.68;5.50;;;26.30;96.70;;;;;;5005109;28;20072;-76
2021/08/15 04:00:10;;;;;;;6.50;5.60;;;26.20;96.70;;;;;;5039631;28;20045;-76
2021/08/15 04:02:39;;;;;;;9.85;6.05;;;26.30;96.70;;;;;;5025041;28;20160;-76
2021/08/15 04:05:08;;;;;;;7.38;5.75;;;26.20;96.70;;;;;;5024345;28;20487;-76
2021/08/15 04:07:36;;;;;;;8.50;6.28;;;26.20;96.70;;;;;;5039032;28;20040;-76
2021/08/15 04:10:08;;;;;;;10.93;6.25;;;26.00;96.70;;;;;;5016335;28;20045;-75
2021/08/15 04:12:38;;;;;;;7.05;5.60;;;25.90;96.70;;;;;;5040438;28;20114;-75
2021/08/15 04:15:10;;;;;;;6.07;5.57;;;25.80;96.70;;;;;;5040484;28;20106;-75
2021/08/15 04:17:39;;;;;;;7.15;6.45;;;25.90;96.70;;;;;;5021833;28;20052;-75
2021/08/15 04:20:09;;;;;;;8.10;5.90;;;25.80;96.70;;;;;;5006853;28;20098;-76
2021/08/15 04:22:38;;;;;;;7.15;6.45;;;25.70;96.70;;;;;;5008308;28;20049;-75
2021/08/15 04:25:11;;;;;;;6.78;6.18;;;25.70;96.70;;;;;;5026082;28;20111;-75
2021/08/15 04:27:40;;;;;;;7.60;5.88;;;25.60;96.70;;;;;;5007231;28;20051;-76
2021/08/15 04:30:11;;;;;;;7.30;6.43;;;25.70;96.70;;;;;;5021338;28;20045;-76
2021/08/15 04:32:39;;;;;;;8.30;6.68;;;25.80;96.70;;;;;;5023317;28;20568;-75
2021/08/15 04:35:08;;;;;;;8.90;6.07;;;25.80;96.70;;;;;;5025391;28;20048;-76
2021/08/15 04:37:36;;;;;;;7.30;6.50;;;25.80;96.70;;;;;;5023302;28;20064;-76
2021/08/15 04:40:06;;;;;;;7.35;6.60;;;25.80;96.70;;;;;;5016590;28;20045;-76
2021/08/15 04:42:34;;;;;;;8.18;6.68;;;25.90;96.70;;;;;;5018326;28;20046;-76
2021/08/15 04:45:02;;;;;;;8.65;5.88;;;25.90;96.70;;;;;;5015094;28;20046;-76
2021/08/15 04:47:32;;;;;;;8.05;7.25;;;26.00;96.70;;;;;;5041587;28;20041;-76
2021/08/15 04:50:00;;;;;;;10.85;7.25;;;26.00;96.70;;;;;;5044701;28;20418;-76
2021/08/15 04:52:29;;;;;;;9.68;7.57;;;25.90;96.70;;;;;;5044703;28;20380;-76
2021/08/15 04:54:57;;;;;;;7.43;6.60;;;25.90;96.70;;;;;;5011744;28;20045;-76
2021/08/15 04:57:25;;;;;;;9.20;7.05;;;25.80;96.70;;;;;;5047079;28;20048;-76
2021/08/15 04:59:53;;;;;;;11.13;7.55;;;26.00;96.70;;;;;;5028024;28;20087;-76
2021/08/15 05:02:22;;;;;;;8.02;6.93;;;26.00;96.70;;;;;;5026589;28;20044;-76
2021/08/15 05:04:52;;;;;;;8.35;6.65;;;26.00;96.70;;;;;;5020516;28;20308;-76
2021/08/15 05:07:20;;;;;;;8.32;6.43;;;26.00;96.70;;;;;;5027024;28;20132;-76
2021/08/15 05:09:48;;;;;;;12.18;7.78;;;26.10;96.70;;;;;;5040210;28;20499;-76
2021/08/15 05:12:17;;;;;;;7.88;6.60;;;26.00;96.70;;;;;;5025694;28;20048;-76
2021/08/15 05:14:45;;;;;;;10.13;7.50;;;26.00;96.70;;;;;;5025937;28;20475;-75
2021/08/15 05:17:13;;;;;;;7.43;6.07;;;26.00;96.70;;;;;;5037470;28;20037;-76
2021/08/15 05:19:41;;;;;;;6.70;5.70;;;26.00;96.70;;;;;;5041014;28;20049;-75
2021/08/15 05:22:11;;;;;;;8.38;6.57;;;26.10;96.70;;;;;;5028101;28;20045;-76
2021/08/15 05:24:39;;;;;;;7.45;6.10;;;26.10;96.70;;;;;;5041073;28;20045;-76
2021/08/15 05:27:08;;;;;;;9.90;7.13;;;26.20;96.70;;;;;;5011548;28;20064;-76
2021/08/15 05:29:36;;;;;;;7.07;6.43;;;26.30;96.70;;;;;;5037483;28;20049;-76
2021/08/15 05:32:05;;;;;;;9.05;7.20;;;26.30;96.70;;;;;;5011385;28;20715;-76
2021/08/15 05:34:33;;;;;;;8.23;6.45;;;26.30;96.70;;;;;;5043200;28;20040;-76
2021/08/15 05:37:01;;;;;;;7.88;6.45;;;26.20;96.70;;;;;;5036042;28;20056;-76
2021/08/15 05:39:31;;;;;;;8.60;6.45;;;26.30;96.70;;;;;;5044680;28;20464;-76
2021/08/15 05:42:00;;;;;;;7.15;6.45;;;26.30;96.70;;;;;;5027453;28;20044;-76
2021/08/15 05:44:28;;;;;;;7.60;6.82;;;26.40;96.70;;;;;;5022739;28;20034;-76
2021/08/15 05:47:04;;;;;;;7.13;6.43;;;26.50;96.70;;;;;;5021572;28;20044;-76
2021/08/15 05:49:32;;;;;;;7.80;6.75;;;26.40;96.70;;;;;;5042990;28;20407;-76
2021/08/15 05:52:01;;;;;;;9.52;6.82;;;26.30;96.70;;;;;;5044669;28;20105;-76
2021/08/15 05:54:30;;;;;;;9.88;6.60;;;26.40;96.70;;;;;;5024112;28;20099;-76
2021/08/15 05:56:59;;;;;;;8.95;6.80;;;26.30;96.70;;;;;;5037901;28;20119;-76
2021/08/15 05:59:32;;;;;;;7.00;6.30;;;26.40;96.70;;;;;;5025716;28;20866;-76
2021/08/15 06:02:00;;;;;;;7.03;6.32;;;26.40;96.70;;;;;;5007279;28;20037;-76
2021/08/15 06:04:29;;;;;;;8.02;6.53;;;26.40;96.70;;;;;;5043827;28;20115;-76
2021/08/15 06:06:57;;;;;;;8.15;6.20;;;26.50;96.70;;;;;;5021239;28;20487;-76
2021/08/15 06:09:25;;;;;;;7.47;5.95;;;26.50;96.70;;;;;;5043267;28;20036;-76
2021/08/15 06:11:55;;;;;;;7.13;6.35;;;26.50;96.70;;;;;;5023183;28;20490;-76
2021/08/15 06:14:23;;;;;;;8.10;7.30;;;26.60;96.70;;;;;;5034763;28;20025;-76
2021/08/15 06:16:52;;;;;;;7.53;6.78;;;26.50;96.70;;;;;;5043327;28;20060;-76
2021/08/15 06:19:20;;;;;;;7.80;6.68;;;26.50;96.70;;;;;;5019192;28;20069;-76
2021/08/15 06:21:48;;;;;;;9.10;6.38;;;26.60;96.70;;;;;;5020008;28;20038;-75
2021/08/15 06:24:17;;;;;;;7.55;6.80;;;26.70;96.70;;;;;;5014815;28;20577;-76
2021/08/15 06:26:45;;;;;;;8.32;7.00;;;26.70;96.70;;;;;;5018004;28;20030;-76
2021/08/15 06:29:15;;;;;;;11.68;7.05;;;26.70;96.70;;;;;;5024241;28;20053;-76
2021/08/15 06:31:43;;;;;;;8.25;6.40;;;26.80;96.70;;;;;;5020602;28;20056;-76
2021/08/15 06:34:12;;;;;;;9.13;6.57;;;26.90;96.70;;;;;;5021039;28;20510;-76
2021/08/15 06:36:40;;;;;;;8.50;6.68;;;26.90;96.70;;;;;;5022814;28;20742;-76
2021/08/15 06:39:08;;;;;;;7.22;6.47;;;26.90;96.70;;;;;;5018228;28;20044;-76
2021/08/15 06:41:36;;;;;;;10.10;6.50;;;26.90;96.70;;;;;;5020449;28;20042;-76
2021/08/15 06:44:05;;;;;;;8.90;6.32;;;26.90;96.70;;;;;;5022794;28;20049;-75
2021/08/15 06:46:35;;;;;;;9.88;7.13;;;26.80;96.70;;;;;;5021786;28;20088;-76
2021/08/15 06:49:03;;;;;;;8.48;6.00;;;26.90;96.70;;;;;;5011339;28;20041;-76
2021/08/15 06:51:32;;;;;;;7.90;6.40;;;27.00;96.70;;;;;;5017662;28;20556;-76
2021/08/15 06:54:00;;;;;;;10.45;6.65;;;27.10;96.70;;;;;;5021426;28;20530;-76
2021/08/15 06:56:28;;;;;;;6.95;5.95;;;27.10;96.70;;;;;;5004011;28;20084;-76
2021/08/15 06:59:01;;;;;;;8.57;5.97;;;27.20;96.70;;;;;;5017021;28;20124;-75
2021/08/15 07:01:30;;;;;;;7.80;5.97;;;27.20;96.70;;;;;;5021140;28;20072;-77
2021/08/15 07:04:00;;;;;;;6.53;5.90;;;27.20;96.70;;;;;;5015614;28;20410;-76
2021/08/15 07:06:28;;;;;;;10.40;6.72;;;27.30;96.70;;;;;;5017092;28;20041;-76
2021/08/15 07:08:56;;;;;;;7.60;6.18;;;27.30;96.70;;;;;;5027925;28;20840;-76
2021/08/15 07:11:24;;;;;;;8.65;6.15;;;27.40;96.70;;;;;;5012169;28;20041;-76
2021/08/15 07:13:53;;;;;;;6.28;5.68;;;27.50;96.70;;;;;;5021754;28;20033;-76
2021/08/15 07:16:21;;;;;;;11.43;6.05;;;27.50;96.70;;;;;;5019218;28;20046;-76
2021/08/15 07:18:49;;;;;;;8.23;6.13;;;27.50;96.70;;;;;;5029193;28;20068;-76
2021/08/15 07:21:20;;;;;;;9.00;6.00;;;27.50;96.70;;;;;;5034896;28;20033;-75
2021/08/15 07:23:48;;;;;;;10.55;6.35;;;27.60;96.70;;;;;;5039667;28;20120;-76
2021/08/15 07:26:16;;;;;;;7.25;5.88;;;27.60;96.70;;;;;;5039389;28;21019;-76
2021/08/15 07:28:45;;;;;;;11.20;6.65;;;27.70;96.70;;;;;;5025485;28;20060;-76
2021/08/15 07:31:13;;;;;;;9.70;5.72;;;27.70;96.70;;;;;;5025960;28;20053;-75
2021/08/15 07:33:41;;;;;;;9.48;5.97;;;27.80;96.70;;;;;;5023335;28;20048;-76
2021/08/15 07:36:11;;;;;;;8.45;6.68;;;27.90;96.70;;;;;;5044045;28;20131;-76
2021/08/15 07:38:42;;;;;;;8.45;6.60;;;28.00;96.70;;;;;;5038928;28;20040;-76
2021/08/15 07:41:10;;;;;;;7.13;6.00;;;28.10;96.70;;;;;;5019534;28;20049;-76
2021/08/15 07:43:38;;;;;;;6.72;5.65;;;28.20;96.70;;;;;;5023651;28;20033;-76
2021/08/15 07:46:08;;;;;;;7.82;5.80;;;28.30;96.70;;;;;;5019123;28;20438;-76
2021/08/15 07:48:36;;;;;;;6.50;5.80;;;28.40;96.70;;;;;;5023537;28;20053;-76
2021/08/15 07:51:04;;;;;;;8.35;6.03;;;28.40;96.70;;;;;;5034402;28;20034;-76
2021/08/15 07:53:32;;;;;;;7.22;6.15;;;28.40;96.70;;;;;;5022928;28;20233;-76
2021/08/15 07:56:03;;;;;;;6.57;5.80;;;28.50;96.70;;;;;;5042980;28;20041;-76
2021/08/15 07:58:31;;;;;;;7.95;6.35;;;28.60;96.70;;;;;;5042061;28;20049;-76
2021/08/15 08:01:00;;;;;;;7.85;5.95;;;28.70;96.70;;;;;;5008639;28;20060;-76
2021/08/15 08:03:28;;;;;;;10.30;6.28;;;28.80;96.70;;;;;;5034077;28;20147;-76
2021/08/15 08:05:57;;;;;;;8.57;6.03;;;28.90;96.70;;;;;;5023728;28;20045;-76
2021/08/15 08:08:25;;;;;;;6.60;5.93;;;28.90;96.70;;;;;;5041834;28;20037;-76
2021/08/15 08:10:54;;;;;;;7.22;5.97;;;28.80;96.70;;;;;;5037347;28;20151;-76
2021/08/15 08:13:24;;;;;;;6.40;5.72;;;28.90;96.70;;;;;;5018019;28;20045;-77
2021/08/15 08:15:52;;;;;;;9.77;6.63;;;29.00;96.70;;;;;;5042364;28;20095;-76
2021/08/15 08:18:21;;;;;;;6.97;6.28;;;29.10;96.70;;;;;;5036548;28;20060;-77
2021/08/15 08:20:49;;;;;;;10.30;5.88;;;29.10;96.70;;;;;;5025948;28;20124;-76
2021/08/15 08:23:18;;;;;;;9.55;6.10;;;29.20;96.70;;;;;;5027171;28;20036;-76
2021/08/15 08:25:48;;;;;;;7.95;6.00;;;29.40;96.70;;;;;;5028185;28;20368;-76
2021/08/15 08:28:16;;;;;;;7.32;6.00;;;29.40;96.70;;;;;;5045877;28;20140;-76
2021/08/15 08:30:46;;;;;;;6.38;5.63;;;29.40;96.70;;;;;;5041375;28;20510;-76
2021/08/15 08:33:15;;;;;;;7.03;6.05;;;29.50;96.70;;;;;;5042257;28;20032;-76
2021/08/15 08:35:43;;;;;;;6.10;5.50;;;29.50;96.70;;;;;;5023350;28;20047;-76
2021/08/15 08:38:12;;;;;;;7.15;5.53;;;29.60;96.70;;;;;;5031342;28;20073;-77
2021/08/15 08:40:42;;;;;;;6.28;5.53;;;29.70;96.30;;;;;;5021107;28;20102;-76
2021/08/15 08:43:10;;;;;;;5.80;5.13;;;29.80;96.20;;;;;;5042119;28;20511;-76
2021/08/15 08:45:41;;;;;;;8.80;6.00;;;29.90;95.60;;;;;;5043697;28;20269;-76
2021/08/15 08:48:12;;;;;;;8.88;5.20;;;29.90;94.30;;;;;;5039784;28;20045;-76
2021/08/15 08:50:41;;;;;;;6.95;5.50;;;30.00;94.00;;;;;;5045606;28;20045;-76
2021/08/15 08:53:09;;;;;;;6.47;5.60;;;30.00;93.60;;;;;;5043769;28;20518;-76
2021/08/15 08:55:39;;;;;;;5.90;5.35;;;30.20;94.00;;;;;;5027151;28;20755;-76
2021/08/15 08:58:08;;;;;;;6.93;5.93;;;30.30;93.10;;;;;;5046162;28;20477;-76
2021/08/15 09:00:36;;;;;;;7.00;5.68;;;30.30;93.40;;;;;;5025927;28;20037;-76
2021/08/15 09:03:05;;;;;;;6.25;5.60;;;30.30;93.30;;;;;;5011867;28;20122;-76
2021/08/15 09:05:36;;;;;;;6.78;5.80;;;30.40;93.00;;;;;;5041791;28;20470;-76
2021/08/15 09:08:05;;;;;;;6.88;5.72;;;30.60;92.90;;;;;;5044679;28;20068;-76
2021/08/15 09:10:38;;;;;;;6.50;5.70;;;30.60;93.00;;;;;;5041195;28;20046;-76
2021/08/15 09:13:07;;;;;;;8.85;5.18;;;30.80;92.40;;;;;;5024517;28;20102;-76
2021/08/15 09:15:37;;;;;;;6.78;5.60;;;30.90;91.80;;;;;;5026949;28;20075;-76
2021/08/15 09:18:05;;;;;;;7.45;5.70;;;30.90;91.50;;;;;;5042290;28;20083;-76
2021/08/15 09:20:41;;;;;;;6.93;5.30;;;30.90;91.50;;;;;;5045555;28;20037;-76
2021/08/15 09:23:21;;;;;;;6.43;5.67;;;30.90;90.80;;;;;;5011667;28;20048;-76
2021/08/15 09:26:11;;;;;;;6.72;5.22;;;30.80;90.70;;;;;;5025254;28;20075;-76
2021/08/15 09:28:40;;;;;;;7.32;4.93;;;30.90;90.10;;;;;;5041615;28;20076;-76
2021/08/15 09:31:24;;;;;;;13.20;5.85;;;31.20;89.90;;;;;;5023833;28;20518;-76
2021/08/15 09:33:54;;;;;;;7.10;5.55;;;31.40;89.10;;;;;;5043989;28;20407;-76
2021/08/15 09:36:29;;;;;;;9.00;5.20;;;31.40;89.10;;;;;;5026030;28;20056;-76
2021/08/15 09:38:59;;;;;;;5.13;4.50;;;31.30;88.70;;;;;;5024202;28;20657;-76
2021/08/15 09:41:32;;;;;;;11.45;6.10;;;31.30;88.70;;;;;;5012108;28;20491;-76
2021/08/15 09:44:18;;;;;;;9.10;6.03;;;31.40;88.50;;;;;;5044538;28;20071;-76
2021/08/15 09:47:07;;;;;;;8.63;5.50;;;31.60;87.10;;;;;;5049789;28;20045;-76
2021/08/15 09:49:41;;;;;;;9.65;5.90;;;31.70;87.20;;;;;;5021299;28;20136;-76
2021/08/15 09:52:12;;;;;;;9.02;4.88;;;31.80;87.20;;;;;;5024626;28;20045;-78
2021/08/15 09:54:51;;;;;;;7.30;5.18;;;31.90;86.90;;;;;;5042578;28;20583;-76
2021/08/15 09:57:30;;;;;;;5.82;5.22;;;31.90;86.90;;;;;;5042567;28;20431;-76
2021/08/15 09:59:58;;;;;;;6.65;5.13;;;32.00;87.50;;;;;;5026588;28;20494;-77
2021/08/15 10:02:27;;;;;;;7.10;5.30;;;32.30;85.80;;;;;;5026125;28;20049;-76
2021/08/15 10:04:56;;;;;;;6.30;5.07;;;32.20;86.10;;;;;;5026066;28;20107;-76
2021/08/15 10:07:26;;;;;;;7.60;5.22;;;32.30;86.00;;;;;;5042273;28;20043;-76
2021/08/15 10:09:55;;;;;;;6.18;4.32;;;32.40;84.90;;;;;;5032507;28;20068;-77
2021/08/15 10:12:23;;;;;;;6.28;4.45;;;32.50;84.70;;;;;;5036886;28;20414;-76
2021/08/15 10:14:51;;;;;;;7.30;4.90;;;32.60;84.70;;;;;;5020385;28;20041;-76
2021/08/15 10:17:21;;;;;;;5.45;3.42;;;32.70;84.60;;;;;;5043020;28;20114;-76
2021/08/15 10:19:54;;;;;;;5.40;3.80;;;32.80;83.60;;;;;;5007171;28;20061;-76
2021/08/15 10:22:26;;;;;;;7.78;4.15;;;33.10;83.40;;;;;;5020903;28;20296;-76
2021/08/15 10:24:58;;;;;;;5.60;4.57;;;33.10;83.50;;;;;;5018378;28;20045;-76
2021/08/15 10:27:48;;;;;;;7.88;4.20;;;33.10;83.40;;;;;;5019151;28;20446;-76
2021/08/15 10:30:44;;;;;;;5.78;3.65;;;33.30;82.60;;;;;;5019129;28;20049;-76
2021/08/15 10:33:28;;;;;;;8.98;5.65;;;33.30;82.30;;;;;;5015302;28;20044;-76
2021/08/15 10:36:26;;;;;;;8.35;7.55;;;33.50;83.20;;;;;;5022278;28;20041;-76
2021/08/15 10:38:58;;;;;;;9.73;6.00;;;33.70;82.80;;;;;;5023332;28;20135;-76
2021/08/15 10:41:49;;;;;;;8.75;4.82;;;33.70;82.70;;;;;;5021987;28;20414;-76
2021/08/15 10:44:18;;;;;;;7.18;4.57;;;33.80;82.40;;;;;;5013195;28;20050;-76
2021/08/15 10:47:13;;;;;;;4.53;3.88;;;33.80;82.00;;;;;;5024001;28;20095;-77
2021/08/15 10:50:04;;;;;;;10.35;5.38;;;34.00;81.00;;;;;;5020119;28;20053;-77
2021/08/15 10:52:38;;;;;;;9.45;5.05;;;34.10;81.60;;;;;;5014980;28;20522;-77
2021/08/15 10:55:14;;;;;;;7.57;5.15;;;34.30;81.80;;;;;;5021264;28;20045;-76
2021/08/15 10:57:48;;;;;;;8.02;4.47;;;34.40;81.50;;;;;;5023646;28;20041;-76
2021/08/15 11:00:47;;;;;;;5.90;3.78;;;34.50;80.20;;;;;;5022636;28;20049;-76
2021/08/15 11:03:38;;;;;;;5.15;3.90;;;34.60;77.10;;;;;;5015901;28;20121;-77
2021/08/15 11:06:41;;;;;;;6.28;3.83;;;34.60;78.10;;;;;;5022368;28;20053;-76
2021/08/15 11:09:10;;;;;;;5.13;4.15;;;34.70;76.70;;;;;;5020738;28;20037;-77
2021/08/15 11:12:11;;;;;;;7.70;4.55;;;34.80;77.40;;;;;;5001944;28;20045;-76
2021/08/15 11:14:59;;;;;;;8.38;4.97;;;34.90;78.20;;;;;;5022239;28;20056;-77
2021/08/15 11:17:29;;;;;;;6.65;4.75;;;35.00;78.20;;;;;;5021682;28;20061;-76
2021/08/15 11:20:31;;;;;;;5.47;4.63;;;34.90;78.30;;;;;;5016758;28;20057;-76
2021/08/15 11:23:11;;;;;;;8.50;4.68;;;35.00;78.20;;;;;;5021549;28;20073;-77
2021/08/15 11:25:40;;;;;;;7.38;4.97;;;35.10;77.80;;;;;;5022684;28;20049;-76
2021/08/15 11:28:10;;;;;;;11.88;5.68;;;35.20;78.10;;;;;;5035383;28;20474;-76
2021/08/15 11:30:39;;;;;;;10.05;5.20;;;35.40;78.00;;;;;;5020361;28;20057;-77
2021/08/15 11:33:08;;;;;;;8.57;5.10;;;35.50;76.60;;;;;;5014019;28;20041;-76
2021/08/15 11:35:46;;;;;;;8.13;4.95;;;35.50;77.00;;;;;;5021566;28;20041;-76
2021/08/15 11:38:16;;;;;;;7.88;5.10;;;35.50;76.50;;;;;;5019706;28;20044;-76
2021/08/15 11:40:46;;;;;;;7.43;5.13;;;35.60;75.80;;;;;;5022616;28;20084;-76
2021/08/15 11:43:18;;;;;;;11.55;4.97;;;35.70;76.50;;;;;;5020434;28;20149;-77
2021/08/15 11:45:54;;;;;;;6.93;4.70;;;35.80;75.40;;;;;;5009106;28;20034;-76
2021/08/15 11:48:24;;;;;;;8.98;4.97;;;35.80;73.90;;;;;;5022137;28;20049;-77
2021/08/15 11:50:55;;;;;;;9.57;5.10;;;35.90;73.30;;;;;;5021679;28;20502;-76
2021/08/15 11:53:25;;;;;;;8.55;5.43;;;35.80;73.70;;;;;;5015532;28;20033;-76
2021/08/15 11:55:55;;;;;;;7.43;5.22;;;35.80;75.40;;;;;;5022994;28;20132;-77
2021/08/15 11:58:24;;;;;;;11.43;5.05;;;35.90;76.00;;;;;;5012419;28;20048;-76
2021/08/15 12:00:53;;;;;;;7.18;4.47;;;35.90;75.30;;;;;;5017107;28;20053;-76
2021/08/15 12:03:23;;;;;;;11.82;5.05;;;35.90;74.40;;;;;;5015544;28;20065;-76
2021/08/15 12:05:56;;;;;;;12.52;4.97;;;36.10;75.60;;;;;;5019953;28;20049;-76
2021/08/15 12:08:34;;;;;;;9.73;5.28;;;36.30;74.60;;;;;;5021263;28;20068;-75
2021/08/15 12:11:03;;;;;;;8.57;5.13;;;36.30;74.70;;;;;;5020244;28;20716;-77
2021/08/15 12:13:34;;;;;;;9.23;5.70;;;36.30;75.70;;;;;;5022629;28;20049;-76
2021/08/15 12:16:11;;;;;;;12.07;5.82;;;36.40;76.30;;;;;;5021060;28;20048;-76
2021/08/15 12:18:42;;;;;;;9.27;5.25;;;36.30;75.80;;;;;;5018235;28;20057;-76
2021/08/15 12:21:22;;;;;;;9.02;5.18;;;36.40;75.30;;;;;;5011047;28;20050;-76
2021/08/15 12:24:11;;;;;;;9.85;5.20;;;36.30;75.60;;;;;;5020824;28;20586;-77
2021/08/15 12:26:43;;;;;;;13.10;4.80;;;36.20;74.40;;;;;;5002175;28;20060;-76
2021/08/15 12:29:18;;;;;;;8.95;4.93;;;36.40;74.50;;;;;;5017882;28;20380;-76
2021/08/15 12:32:04;;;;;;;10.43;4.75;;;36.40;73.30;;;;;;5021026;28;20045;-76
2021/08/15 12:34:34;;;;;;;6.97;4.35;;;36.50;72.30;;;;;;5014424;28;20122;-76
2021/08/15 12:37:12;;;;;;;9.32;4.25;;;36.60;71.50;;;;;;5000891;28;20057;-76
2021/08/15 12:39:43;;;;;;;11.27;4.50;;;36.80;70.80;;;;;;5014307;28;20447;-77
2021/08/15 12:42:17;;;;;;;13.40;3.78;;;36.70;71.10;;;;;;5021026;28;20124;-76
2021/08/15 12:44:50;;;;;;;11.20;4.25;;;36.80;72.50;;;;;;5020363;28;20045;-77
2021/08/15 12:47:27;;;;;;;10.52;4.00;;;36.90;72.40;;;;;;5016878;28;20054;-77
2021/08/15 12:50:06;;;;;;;7.28;3.33;;;36.80;70.40;;;;;;5023029;28;20267;-75
2021/08/15 12:52:47;;;;;;;7.53;3.63;;;36.80;70.50;;;;;;5019545;28;20069;-77
2021/08/15 12:55:21;;;;;;;9.98;3.88;;;36.80;72.00;;;;;;5020473;28;20114;-75
2021/08/15 12:57:58;;;;;;;9.63;4.15;;;36.90;70.50;;;;;;5032907;28;20041;-75
2021/08/15 13:00:30;;;;;;;10.98;3.42;;;36.90;70.30;;;;;;5003107;28;20041;-75
2021/08/15 13:02:59;;;;;;;9.65;3.92;;;36.90;71.00;;;;;;5022306;28;20079;-75
2021/08/15 13:05:29;;;;;;;6.95;3.80;;;37.00;71.30;;;;;;5020082;28;20042;-75
2021/08/15 13:07:58;;;;;;;6.18;3.67;;;36.90;71.70;;;;;;5023029;28;20240;-75